sensor_id;sensor_type;location;lat;lon;timestamp;P1;durP1;ratioP1;P2;durP2;ratioP2
7160;SDS011;3622;53.576;9.978;2023-07-20T00:00:09;12.53;;;8.40;;
7160;SDS011;3622;53.576;9.978;2023-07-20T00:02:38;9.77;;;7.20;;
7160;SDS011;3622;53.576;9.978;2023-07-20T00:05:04;3.20;;;3.00;;
7160;SDS011;3622;53.576;9.978;2023-07-20T00:07:31;2.60;;;2.50;;
7160;SDS011;3622;53.576;9.978;2023-07-20T00:09:57;2.77;;;2.50;;
7160;SDS011;3622;53.576;9.978;2023-07-20T00:12:23;5.00;;;4.60;;
7160;SDS011;3622;53.576;9.978;2023-07-20T00:14:49;3.10;;;3.00;;
7160;SDS011;3622;53.576;9.978;2023-07-20T00:17:18;9.60;;;7.53;;
7160;SDS011;3622;53.576;9.978;2023-07-20T00:19:45;2.60;;;2.40;;
7160;SDS011;3622;53.576;9.978;2023-07-20T00:22:11;2.93;;;2.83;;
7160;SDS011;3622;53.576;9.978;2023-07-20T00:24:38;3.47;;;3.23;;
7160;SDS011;3622;53.576;9.978;2023-07-20T00:27:04;2.80;;;2.60;;
7160;SDS011;3622;53.576;9.978;2023-07-20T00:29:30;2.33;;;2.13;;
7160;SDS011;3622;53.576;9.978;2023-07-20T00:31:56;6.63;;;3.97;;
7160;SDS011;3622;53.576;9.978;2023-07-20T00:34:23;4.77;;;4.47;;
7160;SDS011;3622;53.576;9.978;2023-07-20T00:36:49;4.50;;;3.53;;
7160;SDS011;3622;53.576;9.978;2023-07-20T00:39:15;3.10;;;2.27;;
7160;SDS011;3622;53.576;9.978;2023-07-20T00:41:41;2.57;;;2.47;;
7160;SDS011;3622;53.576;9.978;2023-07-20T00:44:07;2.60;;;2.40;;
7160;SDS011;3622;53.576;9.978;2023-07-20T00:46:33;4.70;;;2.33;;
7160;SDS011;3622;53.576;9.978;2023-07-20T00:48:59;2.80;;;2.43;;
7160;SDS011;3622;53.576;9.978;2023-07-20T00:51:25;2.40;;;2.10;;
7160;SDS011;3622;53.576;9.978;2023-07-20T00:53:52;2.17;;;2.07;;
7160;SDS011;3622;53.576;9.978;2023-07-20T00:56:18;2.90;;;2.70;;
7160;SDS011;3622;53.576;9.978;2023-07-20T00:58:44;4.53;;;4.13;;
7160;SDS011;3622;53.576;9.978;2023-07-20T01:01:10;5.53;;;3.73;;
7160;SDS011;3622;53.576;9.978;2023-07-20T01:03:37;2.90;;;2.70;;
7160;SDS011;3622;53.576;9.978;2023-07-20T01:10:57;2.83;;;2.63;;
7160;SDS011;3622;53.576;9.978;2023-07-20T01:13:25;3.20;;;2.60;;
7160;SDS011;3622;53.576;9.978;2023-07-20T01:16:00;3.33;;;2.93;;
7160;SDS011;3622;53.576;9.978;2023-07-20T01:18:26;10.40;;;7.37;;
7160;SDS011;3622;53.576;9.978;2023-07-20T01:20:53;4.27;;;3.97;;
7160;SDS011;3622;53.576;9.978;2023-07-20T01:23:27;5.20;;;4.80;;
7160;SDS011;3622;53.576;9.978;2023-07-20T01:26:02;6.27;;;5.27;;
7160;SDS011;3622;53.576;9.978;2023-07-20T01:33:42;3.90;;;3.60;;
7160;SDS011;3622;53.576;9.978;2023-07-20T01:36:08;3.30;;;3.10;;
7160;SDS011;3622;53.576;9.978;2023-07-20T01:38:34;5.47;;;4.00;;
7160;SDS011;3622;53.576;9.978;2023-07-20T01:41:00;5.63;;;5.23;;
7160;SDS011;3622;53.576;9.978;2023-07-20T01:43:27;4.20;;;3.90;;
7160;SDS011;3622;53.576;9.978;2023-07-20T01:45:53;3.87;;;3.57;;
7160;SDS011;3622;53.576;9.978;2023-07-20T01:48:19;3.20;;;3.10;;
7160;SDS011;3622;53.576;9.978;2023-07-20T01:50:45;3.07;;;2.87;;
7160;SDS011;3622;53.576;9.978;2023-07-20T01:53:11;3.30;;;3.07;;
7160;SDS011;3622;53.576;9.978;2023-07-20T01:55:37;3.50;;;3.20;;
7160;SDS011;3622;53.576;9.978;2023-07-20T01:58:03;3.93;;;3.63;;
7160;SDS011;3622;53.576;9.978;2023-07-20T02:00:31;2.97;;;2.87;;
7160;SDS011;3622;53.576;9.978;2023-07-20T02:02:56;3.87;;;3.60;;
7160;SDS011;3622;53.576;9.978;2023-07-20T02:05:22;3.50;;;3.30;;
7160;SDS011;3622;53.576;9.978;2023-07-20T02:07:49;3.43;;;3.20;;
7160;SDS011;3622;53.576;9.978;2023-07-20T02:10:15;3.30;;;3.10;;
7160;SDS011;3622;53.576;9.978;2023-07-20T02:12:41;3.37;;;3.10;;
7160;SDS011;3622;53.576;9.978;2023-07-20T02:15:07;3.70;;;3.40;;
7160;SDS011;3622;53.576;9.978;2023-07-20T02:17:33;3.27;;;3.03;;
7160;SDS011;3622;53.576;9.978;2023-07-20T02:19:59;2.90;;;2.70;;
7160;SDS011;3622;53.576;9.978;2023-07-20T02:22:25;3.37;;;3.17;;
7160;SDS011;3622;53.576;9.978;2023-07-20T02:24:51;3.13;;;3.03;;
7160;SDS011;3622;53.576;9.978;2023-07-20T02:27:17;3.60;;;3.13;;
7160;SDS011;3622;53.576;9.978;2023-07-20T02:29:43;3.43;;;3.20;;
7160;SDS011;3622;53.576;9.978;2023-07-20T02:32:09;3.10;;;2.80;;
7160;SDS011;3622;53.576;9.978;2023-07-20T02:34:35;3.13;;;2.93;;
7160;SDS011;3622;53.576;9.978;2023-07-20T02:37:01;3.00;;;2.80;;
7160;SDS011;3622;53.576;9.978;2023-07-20T02:39:27;2.73;;;2.63;;
7160;SDS011;3622;53.576;9.978;2023-07-20T02:41:54;3.13;;;3.03;;
7160;SDS011;3622;53.576;9.978;2023-07-20T02:44:20;3.10;;;2.73;;
7160;SDS011;3622;53.576;9.978;2023-07-20T02:46:46;2.67;;;2.47;;
7160;SDS011;3622;53.576;9.978;2023-07-20T02:49:14;21.67;;;3.07;;
7160;SDS011;3622;53.576;9.978;2023-07-20T02:51:40;2.53;;;2.33;;
7160;SDS011;3622;53.576;9.978;2023-07-20T02:54:06;3.30;;;3.10;;
7160;SDS011;3622;53.576;9.978;2023-07-20T02:56:33;3.43;;;3.23;;
7160;SDS011;3622;53.576;9.978;2023-07-20T02:59:00;4.30;;;4.03;;
7160;SDS011;3622;53.576;9.978;2023-07-20T03:01:26;3.50;;;3.20;;
7160;SDS011;3622;53.576;9.978;2023-07-20T03:03:54;2.70;;;2.60;;
7160;SDS011;3622;53.576;9.978;2023-07-20T03:06:20;3.00;;;2.80;;
7160;SDS011;3622;53.576;9.978;2023-07-20T03:08:46;3.23;;;3.03;;
7160;SDS011;3622;53.576;9.978;2023-07-20T03:11:17;7.40;;;6.33;;
7160;SDS011;3622;53.576;9.978;2023-07-20T03:13:43;4.43;;;4.13;;
7160;SDS011;3622;53.576;9.978;2023-07-20T03:16:10;6.93;;;6.23;;
7160;SDS011;3622;53.576;9.978;2023-07-20T03:18:37;18.30;;;13.83;;
7160;SDS011;3622;53.576;9.978;2023-07-20T03:21:03;7.20;;;6.50;;
7160;SDS011;3622;53.576;9.978;2023-07-20T03:23:29;4.27;;;3.97;;
7160;SDS011;3622;53.576;9.978;2023-07-20T03:25:55;4.50;;;4.20;;
7160;SDS011;3622;53.576;9.978;2023-07-20T03:28:21;4.90;;;4.60;;
7160;SDS011;3622;53.576;9.978;2023-07-20T03:30:52;5.10;;;4.70;;
7160;SDS011;3622;53.576;9.978;2023-07-20T03:33:18;3.47;;;3.27;;
7160;SDS011;3622;53.576;9.978;2023-07-20T03:35:44;4.10;;;3.80;;
7160;SDS011;3622;53.576;9.978;2023-07-20T03:38:10;2.80;;;2.70;;
7160;SDS011;3622;53.576;9.978;2023-07-20T03:40:36;2.20;;;2.10;;
7160;SDS011;3622;53.576;9.978;2023-07-20T03:43:02;3.43;;;2.63;;
7160;SDS011;3622;53.576;9.978;2023-07-20T03:45:28;3.60;;;3.40;;
7160;SDS011;3622;53.576;9.978;2023-07-20T03:47:54;2.60;;;2.50;;
7160;SDS011;3622;53.576;9.978;2023-07-20T03:50:20;2.70;;;2.60;;
7160;SDS011;3622;53.576;9.978;2023-07-20T03:52:46;3.50;;;3.20;;
7160;SDS011;3622;53.576;9.978;2023-07-20T03:55:12;3.73;;;3.53;;
7160;SDS011;3622;53.576;9.978;2023-07-20T03:57:38;4.67;;;4.27;;
7160;SDS011;3622;53.576;9.978;2023-07-20T04:00:05;3.33;;;3.07;;
7160;SDS011;3622;53.576;9.978;2023-07-20T04:02:32;3.07;;;2.97;;
7160;SDS011;3622;53.576;9.978;2023-07-20T04:04:58;3.47;;;3.07;;
7160;SDS011;3622;53.576;9.978;2023-07-20T04:07:24;3.80;;;3.60;;
7160;SDS011;3622;53.576;9.978;2023-07-20T04:09:50;3.13;;;2.93;;
7160;SDS011;3622;53.576;9.978;2023-07-20T04:12:16;2.97;;;2.87;;
7160;SDS011;3622;53.576;9.978;2023-07-20T04:14:42;3.80;;;3.60;;
7160;SDS011;3622;53.576;9.978;2023-07-20T04:17:08;5.83;;;3.50;;
7160;SDS011;3622;53.576;9.978;2023-07-20T04:19:37;4.80;;;3.17;;
7160;SDS011;3622;53.576;9.978;2023-07-20T04:22:03;5.50;;;4.10;;
7160;SDS011;3622;53.576;9.978;2023-07-20T04:24:30;7.80;;;5.30;;
7160;SDS011;3622;53.576;9.978;2023-07-20T04:26:55;3.87;;;3.50;;
7160;SDS011;3622;53.576;9.978;2023-07-20T04:29:21;4.80;;;4.40;;
7160;SDS011;3622;53.576;9.978;2023-07-20T04:31:47;4.30;;;4.00;;
7160;SDS011;3622;53.576;9.978;2023-07-20T04:34:13;4.93;;;3.10;;
7160;SDS011;3622;53.576;9.978;2023-07-20T04:36:39;3.20;;;3.00;;
7160;SDS011;3622;53.576;9.978;2023-07-20T04:39:05;2.80;;;2.27;;
7160;SDS011;3622;53.576;9.978;2023-07-20T04:41:33;3.90;;;2.20;;
7160;SDS011;3622;53.576;9.978;2023-07-20T04:43:59;4.17;;;2.27;;
7160;SDS011;3622;53.576;9.978;2023-07-20T04:46:25;7.13;;;2.10;;
7160;SDS011;3622;53.576;9.978;2023-07-20T04:48:51;3.93;;;1.90;;
7160;SDS011;3622;53.576;9.978;2023-07-20T04:51:17;3.40;;;1.60;;
7160;SDS011;3622;53.576;9.978;2023-07-20T04:53:46;2.27;;;1.60;;
7160;SDS011;3622;53.576;9.978;2023-07-20T04:56:12;2.93;;;1.40;;
7160;SDS011;3622;53.576;9.978;2023-07-20T04:58:38;3.33;;;2.37;;
7160;SDS011;3622;53.576;9.978;2023-07-20T05:01:04;2.13;;;1.90;;
7160;SDS011;3622;53.576;9.978;2023-07-20T05:03:29;3.43;;;1.70;;
7160;SDS011;3622;53.576;9.978;2023-07-20T05:05:56;3.40;;;1.93;;
7160;SDS011;3622;53.576;9.978;2023-07-20T05:08:22;9.53;;;3.90;;
7160;SDS011;3622;53.576;9.978;2023-07-20T05:10:48;3.70;;;2.27;;
7160;SDS011;3622;53.576;9.978;2023-07-20T05:13:14;16.47;;;4.87;;
7160;SDS011;3622;53.576;9.978;2023-07-20T05:15:40;14.97;;;5.37;;
7160;SDS011;3622;53.576;9.978;2023-07-20T05:18:06;13.60;;;5.00;;
7160;SDS011;3622;53.576;9.978;2023-07-20T05:20:34;61.33;;;17.17;;
7160;SDS011;3622;53.576;9.978;2023-07-20T05:23:00;12.60;;;4.50;;
7160;SDS011;3622;53.576;9.978;2023-07-20T05:25:26;13.03;;;4.63;;
7160;SDS011;3622;53.576;9.978;2023-07-20T05:27:52;6.93;;;3.57;;
7160;SDS011;3622;53.576;9.978;2023-07-20T05:30:20;4.07;;;2.77;;
7160;SDS011;3622;53.576;9.978;2023-07-20T05:32:46;5.13;;;2.83;;
7160;SDS011;3622;53.576;9.978;2023-07-20T05:35:16;5.63;;;2.87;;
7160;SDS011;3622;53.576;9.978;2023-07-20T05:37:42;4.97;;;2.50;;
7160;SDS011;3622;53.576;9.978;2023-07-20T05:40:08;5.10;;;2.40;;
7160;SDS011;3622;53.576;9.978;2023-07-20T05:42:37;3.00;;;2.60;;
7160;SDS011;3622;53.576;9.978;2023-07-20T05:45:03;4.17;;;2.73;;
7160;SDS011;3622;53.576;9.978;2023-07-20T05:47:29;12.40;;;5.17;;
7160;SDS011;3622;53.576;9.978;2023-07-20T05:49:54;12.73;;;5.57;;
7160;SDS011;3622;53.576;9.978;2023-07-20T05:52:20;17.00;;;8.87;;
7160;SDS011;3622;53.576;9.978;2023-07-20T05:54:46;12.90;;;6.40;;
7160;SDS011;3622;53.576;9.978;2023-07-20T05:57:12;43.67;;;16.83;;
7160;SDS011;3622;53.576;9.978;2023-07-20T05:59:38;45.43;;;17.33;;
7160;SDS011;3622;53.576;9.978;2023-07-20T06:02:05;59.67;;;20.13;;
7160;SDS011;3622;53.576;9.978;2023-07-20T06:04:33;64.60;;;19.07;;
7160;SDS011;3622;53.576;9.978;2023-07-20T06:06:59;52.03;;;17.47;;
7160;SDS011;3622;53.576;9.978;2023-07-20T06:09:25;20.43;;;6.07;;
7160;SDS011;3622;53.576;9.978;2023-07-20T06:11:51;6.83;;;4.87;;
7160;SDS011;3622;53.576;9.978;2023-07-20T06:14:17;9.60;;;5.63;;
7160;SDS011;3622;53.576;9.978;2023-07-20T06:16:43;5.37;;;2.27;;
7160;SDS011;3622;53.576;9.978;2023-07-20T06:19:09;12.33;;;7.27;;
7160;SDS011;3622;53.576;9.978;2023-07-20T06:21:37;8.00;;;5.87;;
7160;SDS011;3622;53.576;9.978;2023-07-20T06:24:03;3.47;;;2.23;;
7160;SDS011;3622;53.576;9.978;2023-07-20T06:26:29;7.80;;;3.20;;
7160;SDS011;3622;53.576;9.978;2023-07-20T06:28:55;14.17;;;7.17;;
7160;SDS011;3622;53.576;9.978;2023-07-20T06:31:21;4.87;;;2.33;;
7160;SDS011;3622;53.576;9.978;2023-07-20T06:33:47;3.23;;;2.93;;
7160;SDS011;3622;53.576;9.978;2023-07-20T06:36:15;5.87;;;3.27;;
7160;SDS011;3622;53.576;9.978;2023-07-20T06:38:41;7.30;;;1.73;;
7160;SDS011;3622;53.576;9.978;2023-07-20T06:41:07;7.37;;;4.47;;
7160;SDS011;3622;53.576;9.978;2023-07-20T06:43:33;4.87;;;2.13;;
7160;SDS011;3622;53.576;9.978;2023-07-20T06:46:00;7.43;;;3.57;;
7160;SDS011;3622;53.576;9.978;2023-07-20T06:48:26;6.30;;;2.90;;
7160;SDS011;3622;53.576;9.978;2023-07-20T06:50:52;8.60;;;4.57;;
7160;SDS011;3622;53.576;9.978;2023-07-20T06:53:19;13.70;;;4.17;;
7160;SDS011;3622;53.576;9.978;2023-07-20T06:55:45;11.77;;;2.80;;
7160;SDS011;3622;53.576;9.978;2023-07-20T06:58:11;7.80;;;2.10;;
7160;SDS011;3622;53.576;9.978;2023-07-20T07:00:37;28.90;;;6.17;;
7160;SDS011;3622;53.576;9.978;2023-07-20T07:03:03;15.07;;;5.57;;
7160;SDS011;3622;53.576;9.978;2023-07-20T07:05:29;20.10;;;5.40;;
7160;SDS011;3622;53.576;9.978;2023-07-20T07:07:55;49.47;;;16.00;;
7160;SDS011;3622;53.576;9.978;2023-07-20T07:10:21;44.37;;;16.67;;
7160;SDS011;3622;53.576;9.978;2023-07-20T07:12:47;89.40;;;23.90;;
7160;SDS011;3622;53.576;9.978;2023-07-20T07:15:13;59.07;;;20.67;;
7160;SDS011;3622;53.576;9.978;2023-07-20T07:17:39;68.63;;;23.43;;
7160;SDS011;3622;53.576;9.978;2023-07-20T07:20:05;54.20;;;20.70;;
7160;SDS011;3622;53.576;9.978;2023-07-20T07:22:32;23.37;;;5.67;;
7160;SDS011;3622;53.576;9.978;2023-07-20T07:24:58;13.33;;;5.53;;
7160;SDS011;3622;53.576;9.978;2023-07-20T07:27:24;6.93;;;3.30;;
7160;SDS011;3622;53.576;9.978;2023-07-20T07:29:50;3.60;;;1.60;;
7160;SDS011;3622;53.576;9.978;2023-07-20T07:32:16;7.00;;;3.90;;
7160;SDS011;3622;53.576;9.978;2023-07-20T07:34:43;5.37;;;1.70;;
7160;SDS011;3622;53.576;9.978;2023-07-20T07:37:11;2.13;;;1.43;;
7160;SDS011;3622;53.576;9.978;2023-07-20T07:39:37;4.23;;;1.60;;
7160;SDS011;3622;53.576;9.978;2023-07-20T07:42:04;2.70;;;1.30;;
7160;SDS011;3622;53.576;9.978;2023-07-20T07:44:30;1.70;;;1.60;;
7160;SDS011;3622;53.576;9.978;2023-07-20T07:46:56;5.67;;;2.87;;
7160;SDS011;3622;53.576;9.978;2023-07-20T07:49:22;5.53;;;2.53;;
7160;SDS011;3622;53.576;9.978;2023-07-20T07:51:48;7.50;;;1.73;;
7160;SDS011;3622;53.576;9.978;2023-07-20T07:54:14;13.60;;;3.77;;
7160;SDS011;3622;53.576;9.978;2023-07-20T07:56:40;8.57;;;5.13;;
7160;SDS011;3622;53.576;9.978;2023-07-20T07:59:06;3.97;;;2.80;;
7160;SDS011;3622;53.576;9.978;2023-07-20T08:01:32;12.10;;;2.57;;
7160;SDS011;3622;53.576;9.978;2023-07-20T08:03:58;8.13;;;2.87;;
7160;SDS011;3622;53.576;9.978;2023-07-20T08:06:24;3.57;;;2.40;;
7160;SDS011;3622;53.576;9.978;2023-07-20T08:08:51;6.03;;;2.40;;
7160;SDS011;3622;53.576;9.978;2023-07-20T08:11:17;3.10;;;2.10;;
7160;SDS011;3622;53.576;9.978;2023-07-20T08:13:43;6.27;;;2.10;;
7160;SDS011;3622;53.576;9.978;2023-07-20T08:16:09;6.43;;;2.17;;
7160;SDS011;3622;53.576;9.978;2023-07-20T08:18:35;3.10;;;1.87;;
7160;SDS011;3622;53.576;9.978;2023-07-20T08:21:01;3.27;;;1.73;;
7160;SDS011;3622;53.576;9.978;2023-07-20T08:23:27;3.77;;;2.00;;
7160;SDS011;3622;53.576;9.978;2023-07-20T08:25:53;12.53;;;3.80;;
7160;SDS011;3622;53.576;9.978;2023-07-20T08:28:20;10.20;;;2.67;;
7160;SDS011;3622;53.576;9.978;2023-07-20T08:30:47;9.13;;;2.67;;
7160;SDS011;3622;53.576;9.978;2023-07-20T08:33:13;15.53;;;4.50;;
7160;SDS011;3622;53.576;9.978;2023-07-20T08:35:39;17.17;;;5.17;;
7160;SDS011;3622;53.576;9.978;2023-07-20T08:38:05;17.63;;;5.90;;
7160;SDS011;3622;53.576;9.978;2023-07-20T08:40:32;16.40;;;5.23;;
7160;SDS011;3622;53.576;9.978;2023-07-20T08:42:59;14.50;;;5.17;;
7160;SDS011;3622;53.576;9.978;2023-07-20T08:45:28;8.70;;;2.93;;
7160;SDS011;3622;53.576;9.978;2023-07-20T08:47:55;5.47;;;4.00;;
7160;SDS011;3622;53.576;9.978;2023-07-20T08:50:22;4.20;;;1.97;;
7160;SDS011;3622;53.576;9.978;2023-07-20T08:52:49;8.83;;;5.60;;
7160;SDS011;3622;53.576;9.978;2023-07-20T08:55:16;6.23;;;2.37;;
7160;SDS011;3622;53.576;9.978;2023-07-20T08:57:42;6.57;;;4.13;;
7160;SDS011;3622;53.576;9.978;2023-07-20T09:00:11;10.00;;;5.30;;
7160;SDS011;3622;53.576;9.978;2023-07-20T09:02:39;4.53;;;3.50;;
7160;SDS011;3622;53.576;9.978;2023-07-20T09:05:07;5.97;;;3.67;;
7160;SDS011;3622;53.576;9.978;2023-07-20T09:07:33;4.87;;;2.20;;
7160;SDS011;3622;53.576;9.978;2023-07-20T09:10:00;5.40;;;3.60;;
7160;SDS011;3622;53.576;9.978;2023-07-20T09:12:31;8.83;;;2.73;;
7160;SDS011;3622;53.576;9.978;2023-07-20T09:14:57;13.30;;;3.13;;
7160;SDS011;3622;53.576;9.978;2023-07-20T09:17:25;3.53;;;2.30;;
7160;SDS011;3622;53.576;9.978;2023-07-20T09:19:51;10.60;;;2.37;;
7160;SDS011;3622;53.576;9.978;2023-07-20T09:22:17;7.90;;;1.93;;
7160;SDS011;3622;53.576;9.978;2023-07-20T09:24:43;7.03;;;2.33;;
7160;SDS011;3622;53.576;9.978;2023-07-20T09:27:09;4.70;;;2.63;;
7160;SDS011;3622;53.576;9.978;2023-07-20T09:29:49;3.43;;;1.50;;
7160;SDS011;3622;53.576;9.978;2023-07-20T09:32:17;1.20;;;1.10;;
7160;SDS011;3622;53.576;9.978;2023-07-20T09:34:45;2.30;;;1.67;;
7160;SDS011;3622;53.576;9.978;2023-07-20T09:37:11;2.63;;;1.17;;
7160;SDS011;3622;53.576;9.978;2023-07-20T09:39:46;3.83;;;2.63;;
7160;SDS011;3622;53.576;9.978;2023-07-20T09:42:12;2.40;;;1.10;;
7160;SDS011;3622;53.576;9.978;2023-07-20T09:44:38;2.83;;;1.40;;
7160;SDS011;3622;53.576;9.978;2023-07-20T09:47:05;2.03;;;1.20;;
7160;SDS011;3622;53.576;9.978;2023-07-20T09:49:31;6.80;;;2.13;;
7160;SDS011;3622;53.576;9.978;2023-07-20T09:52:00;2.70;;;1.00;;
7160;SDS011;3622;53.576;9.978;2023-07-20T09:54:27;3.47;;;1.30;;
7160;SDS011;3622;53.576;9.978;2023-07-20T09:56:54;2.63;;;1.60;;
7160;SDS011;3622;53.576;9.978;2023-07-20T09:59:21;3.53;;;1.93;;
7160;SDS011;3622;53.576;9.978;2023-07-20T10:01:47;3.60;;;1.50;;
7160;SDS011;3622;53.576;9.978;2023-07-20T10:04:14;3.27;;;1.23;;
7160;SDS011;3622;53.576;9.978;2023-07-20T10:06:42;2.57;;;1.00;;
7160;SDS011;3622;53.576;9.978;2023-07-20T10:09:09;1.90;;;1.17;;
7160;SDS011;3622;53.576;9.978;2023-07-20T10:11:36;3.10;;;1.10;;
7160;SDS011;3622;53.576;9.978;2023-07-20T10:14:03;3.87;;;1.30;;
7160;SDS011;3622;53.576;9.978;2023-07-20T10:16:36;1.77;;;1.20;;
7160;SDS011;3622;53.576;9.978;2023-07-20T10:19:07;3.23;;;1.20;;
7160;SDS011;3622;53.576;9.978;2023-07-20T10:21:33;4.07;;;1.20;;
7160;SDS011;3622;53.576;9.978;2023-07-20T10:24:01;1.90;;;1.27;;
7160;SDS011;3622;53.576;9.978;2023-07-20T10:26:27;2.87;;;1.23;;
7160;SDS011;3622;53.576;9.978;2023-07-20T10:28:53;1.73;;;1.07;;
7160;SDS011;3622;53.576;9.978;2023-07-20T10:31:19;2.33;;;0.97;;
7160;SDS011;3622;53.576;9.978;2023-07-20T10:33:45;3.53;;;1.57;;
7160;SDS011;3622;53.576;9.978;2023-07-20T10:36:12;1.47;;;1.10;;
7160;SDS011;3622;53.576;9.978;2023-07-20T10:38:42;3.77;;;1.00;;
7160;SDS011;3622;53.576;9.978;2023-07-20T10:41:17;4.80;;;1.33;;
7160;SDS011;3622;53.576;9.978;2023-07-20T10:43:44;4.73;;;0.97;;
7160;SDS011;3622;53.576;9.978;2023-07-20T10:46:11;3.00;;;0.90;;
7160;SDS011;3622;53.576;9.978;2023-07-20T10:48:58;2.70;;;1.13;;
7160;SDS011;3622;53.576;9.978;2023-07-20T10:51:23;3.27;;;1.20;;
7160;SDS011;3622;53.576;9.978;2023-07-20T10:53:49;3.63;;;1.20;;
7160;SDS011;3622;53.576;9.978;2023-07-20T10:56:19;6.83;;;0.90;;
7160;SDS011;3622;53.576;9.978;2023-07-20T10:58:45;3.20;;;0.90;;
7160;SDS011;3622;53.576;9.978;2023-07-20T11:01:15;2.67;;;1.20;;
7160;SDS011;3622;53.576;9.978;2023-07-20T11:03:42;2.40;;;1.57;;
7160;SDS011;3622;53.576;9.978;2023-07-20T11:09:11;1.40;;;1.30;;
7160;SDS011;3622;53.576;9.978;2023-07-20T11:11:39;3.50;;;1.90;;
7160;SDS011;3622;53.576;9.978;2023-07-20T11:14:06;3.93;;;1.40;;
7160;SDS011;3622;53.576;9.978;2023-07-20T11:16:43;4.50;;;1.10;;
7160;SDS011;3622;53.576;9.978;2023-07-20T11:19:16;1.20;;;0.60;;
7160;SDS011;3622;53.576;9.978;2023-07-20T11:21:43;1.20;;;0.70;;
7160;SDS011;3622;53.576;9.978;2023-07-20T11:24:09;3.90;;;1.73;;
7160;SDS011;3622;53.576;9.978;2023-07-20T11:26:40;2.60;;;0.70;;
7160;SDS011;3622;53.576;9.978;2023-07-20T11:29:06;1.23;;;0.67;;
7160;SDS011;3622;53.576;9.978;2023-07-20T11:31:39;1.87;;;0.77;;
7160;SDS011;3622;53.576;9.978;2023-07-20T11:34:05;0.90;;;0.57;;
7160;SDS011;3622;53.576;9.978;2023-07-20T11:36:32;1.53;;;0.70;;
7160;SDS011;3622;53.576;9.978;2023-07-20T11:38:59;2.20;;;1.17;;
7160;SDS011;3622;53.576;9.978;2023-07-20T11:41:25;6.77;;;0.60;;
7160;SDS011;3622;53.576;9.978;2023-07-20T11:43:52;1.40;;;0.90;;
7160;SDS011;3622;53.576;9.978;2023-07-20T11:46:18;0.97;;;0.87;;
7160;SDS011;3622;53.576;9.978;2023-07-20T11:48:44;3.13;;;0.90;;
7160;SDS011;3622;53.576;9.978;2023-07-20T11:51:13;2.60;;;0.97;;
7160;SDS011;3622;53.576;9.978;2023-07-20T11:53:40;1.63;;;0.80;;
7160;SDS011;3622;53.576;9.978;2023-07-20T11:56:06;3.40;;;1.90;;
7160;SDS011;3622;53.576;9.978;2023-07-20T11:58:32;2.67;;;1.10;;
7160;SDS011;3622;53.576;9.978;2023-07-20T12:00:58;2.23;;;1.07;;
7160;SDS011;3622;53.576;9.978;2023-07-20T12:03:24;2.87;;;2.63;;
7160;SDS011;3622;53.576;9.978;2023-07-20T12:05:50;1.30;;;0.83;;
7160;SDS011;3622;53.576;9.978;2023-07-20T12:08:16;1.50;;;1.00;;
7160;SDS011;3622;53.576;9.978;2023-07-20T12:10:42;2.67;;;1.13;;
7160;SDS011;3622;53.576;9.978;2023-07-20T12:13:09;1.20;;;0.83;;
7160;SDS011;3622;53.576;9.978;2023-07-20T12:15:36;3.30;;;0.73;;
7160;SDS011;3622;53.576;9.978;2023-07-20T12:18:03;1.53;;;0.70;;
7160;SDS011;3622;53.576;9.978;2023-07-20T12:20:30;1.30;;;0.60;;
7160;SDS011;3622;53.576;9.978;2023-07-20T12:23:00;2.30;;;0.80;;
7160;SDS011;3622;53.576;9.978;2023-07-20T12:25:59;18.90;;;1.10;;
7160;SDS011;3622;53.576;9.978;2023-07-20T12:28:20;1.20;;;0.70;;
7160;SDS011;3622;53.576;9.978;2023-07-20T12:30:47;1.47;;;0.57;;
7160;SDS011;3622;53.576;9.978;2023-07-20T12:33:21;4.43;;;1.40;;
7160;SDS011;3622;53.576;9.978;2023-07-20T12:35:47;1.17;;;0.70;;
7160;SDS011;3622;53.576;9.978;2023-07-20T12:38:13;2.63;;;1.20;;
7160;SDS011;3622;53.576;9.978;2023-07-20T12:40:39;1.40;;;0.80;;
7160;SDS011;3622;53.576;9.978;2023-07-20T12:43:05;3.40;;;0.90;;
7160;SDS011;3622;53.576;9.978;2023-07-20T12:45:32;3.30;;;1.10;;
7160;SDS011;3622;53.576;9.978;2023-07-20T12:47:58;3.57;;;1.10;;
7160;SDS011;3622;53.576;9.978;2023-07-20T12:50:24;1.53;;;0.83;;
7160;SDS011;3622;53.576;9.978;2023-07-20T12:52:50;5.33;;;2.00;;
7160;SDS011;3622;53.576;9.978;2023-07-20T12:55:16;2.60;;;1.30;;
7160;SDS011;3622;53.576;9.978;2023-07-20T12:57:42;1.60;;;0.63;;
7160;SDS011;3622;53.576;9.978;2023-07-20T13:00:09;3.53;;;2.00;;
7160;SDS011;3622;53.576;9.978;2023-07-20T13:02:37;0.90;;;0.60;;
7160;SDS011;3622;53.576;9.978;2023-07-20T13:05:03;1.97;;;0.67;;
7160;SDS011;3622;53.576;9.978;2023-07-20T13:07:33;2.37;;;0.93;;
7160;SDS011;3622;53.576;9.978;2023-07-20T13:09:59;3.00;;;0.90;;
7160;SDS011;3622;53.576;9.978;2023-07-20T13:12:29;3.27;;;0.73;;
7160;SDS011;3622;53.576;9.978;2023-07-20T13:14:55;0.90;;;0.60;;
7160;SDS011;3622;53.576;9.978;2023-07-20T13:17:22;0.90;;;0.50;;
7160;SDS011;3622;53.576;9.978;2023-07-20T13:19:48;1.50;;;0.67;;
7160;SDS011;3622;53.576;9.978;2023-07-20T13:22:14;1.40;;;0.80;;
7160;SDS011;3622;53.576;9.978;2023-07-20T13:24:40;3.30;;;1.57;;
7160;SDS011;3622;53.576;9.978;2023-07-20T13:27:06;6.20;;;0.70;;
7160;SDS011;3622;53.576;9.978;2023-07-20T13:29:32;9.67;;;1.03;;
7160;SDS011;3622;53.576;9.978;2023-07-20T13:31:58;3.17;;;0.67;;
7160;SDS011;3622;53.576;9.978;2023-07-20T13:34:25;1.20;;;0.60;;
7160;SDS011;3622;53.576;9.978;2023-07-20T13:36:51;2.00;;;0.97;;
7160;SDS011;3622;53.576;9.978;2023-07-20T13:39:17;4.40;;;0.80;;
7160;SDS011;3622;53.576;9.978;2023-07-20T13:41:44;1.20;;;0.80;;
7160;SDS011;3622;53.576;9.978;2023-07-20T13:44:10;1.40;;;0.73;;
7160;SDS011;3622;53.576;9.978;2023-07-20T13:46:36;1.33;;;0.70;;
7160;SDS011;3622;53.576;9.978;2023-07-20T13:49:02;5.40;;;0.80;;
7160;SDS011;3622;53.576;9.978;2023-07-20T13:51:28;0.93;;;0.77;;
7160;SDS011;3622;53.576;9.978;2023-07-20T13:53:54;1.00;;;0.83;;
7160;SDS011;3622;53.576;9.978;2023-07-20T13:56:20;1.67;;;0.80;;
7160;SDS011;3622;53.576;9.978;2023-07-20T13:58:46;1.07;;;0.73;;
7160;SDS011;3622;53.576;9.978;2023-07-20T14:01:13;1.87;;;1.00;;
7160;SDS011;3622;53.576;9.978;2023-07-20T14:03:38;8.83;;;0.80;;
7160;SDS011;3622;53.576;9.978;2023-07-20T14:06:04;1.00;;;0.60;;
7160;SDS011;3622;53.576;9.978;2023-07-20T14:08:30;2.80;;;0.80;;
7160;SDS011;3622;53.576;9.978;2023-07-20T14:10:56;3.00;;;0.60;;
7160;SDS011;3622;53.576;9.978;2023-07-20T14:13:23;1.10;;;0.50;;
7160;SDS011;3622;53.576;9.978;2023-07-20T14:15:49;1.57;;;0.70;;
7160;SDS011;3622;53.576;9.978;2023-07-20T14:18:15;1.67;;;0.60;;
7160;SDS011;3622;53.576;9.978;2023-07-20T14:20:41;2.30;;;0.80;;
7160;SDS011;3622;53.576;9.978;2023-07-20T14:23:09;0.90;;;0.73;;
7160;SDS011;3622;53.576;9.978;2023-07-20T14:25:35;1.00;;;0.80;;
7160;SDS011;3622;53.576;9.978;2023-07-20T14:28:01;1.00;;;0.80;;
7160;SDS011;3622;53.576;9.978;2023-07-20T14:30:26;0.90;;;0.60;;
7160;SDS011;3622;53.576;9.978;2023-07-20T14:32:52;2.10;;;0.83;;
7160;SDS011;3622;53.576;9.978;2023-07-20T14:35:18;1.80;;;0.97;;
7160;SDS011;3622;53.576;9.978;2023-07-20T14:37:44;1.23;;;0.70;;
7160;SDS011;3622;53.576;9.978;2023-07-20T14:40:12;1.97;;;0.80;;
7160;SDS011;3622;53.576;9.978;2023-07-20T14:42:38;1.43;;;0.60;;
7160;SDS011;3622;53.576;9.978;2023-07-20T14:45:04;2.10;;;1.17;;
7160;SDS011;3622;53.576;9.978;2023-07-20T14:47:30;2.97;;;0.70;;
7160;SDS011;3622;53.576;9.978;2023-07-20T14:50:03;6.17;;;1.40;;
7160;SDS011;3622;53.576;9.978;2023-07-20T14:52:29;1.73;;;0.70;;
7160;SDS011;3622;53.576;9.978;2023-07-20T14:54:55;2.03;;;0.97;;
7160;SDS011;3622;53.576;9.978;2023-07-20T14:57:21;3.17;;;1.40;;
7160;SDS011;3622;53.576;9.978;2023-07-20T14:59:48;1.47;;;0.80;;
7160;SDS011;3622;53.576;9.978;2023-07-20T15:02:14;3.00;;;0.90;;
7160;SDS011;3622;53.576;9.978;2023-07-20T15:04:47;1.70;;;1.10;;
7160;SDS011;3622;53.576;9.978;2023-07-20T15:07:14;2.60;;;1.27;;
7160;SDS011;3622;53.576;9.978;2023-07-20T15:09:40;4.33;;;1.70;;
7160;SDS011;3622;53.576;9.978;2023-07-20T15:12:06;4.10;;;1.20;;
7160;SDS011;3622;53.576;9.978;2023-07-20T15:14:32;2.43;;;1.30;;
7160;SDS011;3622;53.576;9.978;2023-07-20T15:16:58;2.73;;;1.10;;
7160;SDS011;3622;53.576;9.978;2023-07-20T15:19:24;2.63;;;2.20;;
7160;SDS011;3622;53.576;9.978;2023-07-20T15:21:50;1.40;;;1.30;;